createdAt,value
2024-03-15T00:00:14.983Z,12.37
2024-03-15T00:02:46.462Z,12.45
2024-03-15T00:05:17.422Z,12.45
2024-03-15T00:07:47.599Z,12.35
2024-03-15T00:10:18.688Z,12.30
2024-03-15T00:12:47.210Z,12.38
2024-03-15T00:15:20.250Z,12.32
2024-03-15T00:17:48.403Z,12.28
2024-03-15T00:20:16.534Z,12.15
2024-03-15T00:22:52.681Z,11.99
2024-03-15T00:25:23.048Z,12.48
2024-03-15T00:27:51.711Z,12.26
2024-03-15T00:30:21.425Z,12.17
2024-03-15T00:32:50.009Z,11.43
2024-03-15T00:35:17.887Z,12.52
2024-03-15T00:37:48.429Z,12.75
2024-03-15T00:40:18.405Z,12.61
2024-03-15T00:42:47.560Z,12.41
2024-03-15T00:45:18.377Z,12.38
2024-03-15T00:47:46.391Z,12.50
2024-03-15T00:50:14.781Z,12.67
2024-03-15T00:52:42.969Z,12.56
2024-03-15T00:55:13.399Z,12.56
2024-03-15T00:57:44.122Z,12.66
2024-03-15T01:00:14.746Z,12.40
2024-03-15T01:02:43.907Z,12.37
2024-03-15T01:05:12.268Z,12.62
2024-03-15T01:07:43.865Z,12.43
2024-03-15T01:10:13.022Z,11.95
2024-03-15T01:12:41.735Z,12.10
2024-03-15T01:15:10.965Z,12.17
2024-03-15T01:17:39.663Z,12.34
2024-03-15T01:20:09.674Z,12.20
2024-03-15T01:22:40.035Z,12.26
2024-03-15T01:25:09.336Z,12.27
2024-03-15T01:27:38.815Z,12.35
2024-03-15T01:30:11.720Z,12.13
2024-03-15T01:32:40.088Z,12.17
2024-03-15T01:35:08.755Z,12.20
2024-03-15T01:37:38.439Z,12.23
2024-03-15T01:40:12.595Z,12.06
2024-03-15T01:42:42.811Z,12.26
2024-03-15T01:45:11.652Z,12.16
2024-03-15T01:47:40.604Z,12.24
2024-03-15T01:50:09.779Z,12.31
2024-03-15T01:52:43.169Z,12.32
2024-03-15T01:55:11.868Z,12.36
2024-03-15T01:57:41.284Z,12.42
2024-03-15T02:00:14.574Z,12.37
2024-03-15T02:02:43.102Z,12.26
2024-03-15T02:05:14.166Z,12.14
2024-03-15T02:07:42.230Z,12.17
2024-03-15T02:10:22.050Z,12.16
2024-03-15T02:12:50.560Z,12.20
2024-03-15T02:15:20.289Z,12.31
2024-03-15T02:17:49.803Z,12.22
2024-03-15T02:20:23.249Z,12.20
2024-03-15T02:22:54.393Z,12.15
2024-03-15T02:25:22.296Z,11.76
2024-03-15T02:27:52.952Z,11.11
2024-03-15T02:30:21.575Z,11.34
2024-03-15T02:32:51.180Z,11.59
2024-03-15T02:35:27.791Z,12.16
2024-03-15T02:38:01.431Z,11.87
2024-03-15T02:40:30.907Z,11.72
2024-03-15T02:43:01.312Z,11.61
2024-03-15T02:45:31.990Z,11.59
2024-03-15T02:48:02.609Z,11.70
2024-03-15T02:50:31.105Z,11.81
2024-03-15T02:53:01.099Z,11.79
2024-03-15T02:55:29.834Z,11.85
2024-03-15T02:58:00.024Z,11.84
2024-03-15T03:00:32.222Z,11.74
2024-03-15T03:03:01.891Z,11.59
2024-03-15T03:05:32.038Z,11.13
2024-03-15T03:08:03.064Z,11.23
2024-03-15T03:10:31.826Z,10.90
2024-03-15T03:13:02.945Z,11.16
2024-03-15T03:15:31.698Z,11.16
2024-03-15T03:18:02.480Z,11.13
2024-03-15T03:20:37.436Z,11.08
2024-03-15T03:23:09.615Z,11.22
2024-03-15T03:25:39.201Z,11.20
2024-03-15T03:28:09.135Z,11.16
2024-03-15T03:30:37.714Z,11.29
2024-03-15T03:33:07.312Z,11.32
2024-03-15T03:35:37.501Z,11.44
2024-03-15T03:38:07.058Z,11.50
2024-03-15T03:40:37.612Z,11.52
2024-03-15T03:43:06.777Z,11.57
2024-03-15T03:45:42.888Z,11.66
2024-03-15T03:48:14.669Z,11.47
2024-03-15T03:50:45.079Z,11.63
2024-03-15T03:53:13.576Z,11.74
2024-03-15T03:55:46.227Z,11.70
2024-03-15T03:58:15.332Z,11.87
2024-03-15T04:00:43.434Z,11.99
2024-03-15T04:03:12.822Z,11.70
2024-03-15T04:05:41.641Z,11.95
2024-03-15T04:08:12.358Z,11.95
2024-03-15T04:10:45.268Z,11.85
2024-03-15T04:13:18.630Z,11.86
2024-03-15T04:15:49.603Z,11.90
2024-03-15T04:18:18.897Z,11.96
2024-03-15T04:20:47.785Z,12.11
2024-03-15T04:23:16.800Z,12.34
2024-03-15T04:25:44.967Z,12.63
2024-03-15T04:28:16.379Z,12.67
2024-03-15T04:30:44.505Z,12.38
2024-03-15T04:33:13.137Z,12.44
2024-03-15T04:35:41.476Z,12.48
2024-03-15T04:38:11.129Z,12.28
2024-03-15T04:40:40.371Z,12.53
2024-03-15T04:43:08.574Z,12.22
2024-03-15T04:45:36.846Z,12.06
2024-03-15T04:48:07.393Z,12.17
2024-03-15T04:50:37.487Z,11.83
2024-03-15T04:53:08.154Z,11.94
2024-03-15T04:55:43.141Z,12.07
2024-03-15T04:58:13.220Z,11.90
2024-03-15T05:00:43.946Z,11.98
2024-03-15T05:03:13.502Z,12.32
2024-03-15T05:05:41.753Z,12.27
2024-03-15T05:08:10.059Z,11.99
2024-03-15T05:10:39.383Z,12.05
2024-03-15T05:13:08.113Z,12.08
2024-03-15T05:15:39.916Z,12.14
2024-03-15T05:18:10.197Z,11.85
2024-03-15T05:20:40.363Z,11.77
2024-03-15T05:23:12.276Z,11.69
2024-03-15T05:25:42.763Z,11.39
2024-03-15T05:28:11.143Z,11.64
2024-03-15T05:30:39.980Z,11.53
2024-03-15T05:33:10.873Z,11.66
2024-03-15T05:35:38.966Z,11.86
2024-03-15T05:38:07.089Z,11.99
2024-03-15T05:40:36.231Z,11.83
2024-03-15T05:43:06.218Z,12.09
2024-03-15T05:45:44.160Z,12.21
2024-03-15T05:48:15.992Z,12.02
2024-03-15T05:50:45.973Z,12.15
2024-03-15T05:53:13.998Z,12.27
2024-03-15T05:55:44.678Z,12.02
2024-03-15T05:58:14.753Z,12.21
2024-03-15T06:00:44.375Z,12.24
2024-03-15T06:03:12.891Z,12.51
2024-03-15T06:05:41.097Z,12.09
2024-03-15T06:08:12.036Z,12.54
2024-03-15T06:10:41.018Z,12.74
2024-03-15T06:13:10.569Z,12.73
2024-03-15T06:15:40.154Z,12.85
2024-03-15T06:18:09.280Z,12.77
2024-03-15T06:20:41.377Z,12.63
2024-03-15T06:23:14.264Z,12.43
2024-03-15T06:25:45.648Z,12.62
2024-03-15T06:28:18.811Z,13.02
2024-03-15T06:30:48.389Z,12.82
2024-03-15T06:33:17.676Z,13.21
2024-03-15T06:35:48.213Z,13.34
2024-03-15T06:38:28.933Z,13.21
2024-03-15T06:41:16.334Z,13.39
2024-03-15T06:43:47.703Z,13.10
2024-03-15T06:46:25.848Z,13.45
2024-03-15T06:49:03.731Z,13.99
2024-03-15T06:51:49.276Z,13.83
2024-03-15T06:54:20.638Z,13.46
2024-03-15T06:56:52.715Z,13.88
2024-03-15T06:59:21.906Z,13.60
2024-03-15T07:01:50.548Z,13.49
2024-03-15T07:04:25.538Z,13.86
2024-03-15T07:06:57.848Z,13.97
2024-03-15T07:09:26.787Z,14.31
2024-03-15T07:11:59.289Z,14.58
2024-03-15T07:14:27.966Z,14.69
2024-03-15T07:17:02.145Z,14.62
2024-03-15T07:19:33.584Z,14.67
2024-03-15T07:22:05.602Z,14.22
2024-03-15T07:24:37.216Z,14.28
2024-03-15T07:27:06.630Z,14.58
2024-03-15T07:29:34.524Z,14.26
2024-03-15T07:32:05.136Z,14.76
2024-03-15T07:34:35.436Z,14.41
2024-03-15T07:37:05.790Z,14.96
2024-03-15T07:39:34.099Z,14.45
2024-03-15T07:42:02.559Z,14.51
2024-03-15T07:44:31.191Z,14.60
2024-03-15T07:46:59.115Z,14.14
2024-03-15T07:49:30.984Z,14.32
2024-03-15T07:52:06.077Z,14.67
2024-03-15T07:54:36.073Z,14.57
2024-03-15T07:57:04.537Z,14.91
2024-03-15T07:59:34.666Z,14.60
2024-03-15T08:02:05.101Z,14.65
2024-03-15T08:04:38.815Z,14.98
2024-03-15T08:07:11.040Z,14.78
2024-03-15T08:09:41.491Z,15.11
2024-03-15T08:12:13.077Z,15.18
2024-03-15T08:14:41.517Z,15.38
2024-03-15T08:17:10.115Z,15.41
2024-03-15T08:19:40.860Z,15.30
2024-03-15T08:22:16.598Z,15.67
2024-03-15T08:24:46.273Z,15.07
2024-03-15T08:27:15.948Z,15.87
2024-03-15T08:29:43.975Z,15.75
2024-03-15T08:32:12.913Z,15.64
2024-03-15T08:34:40.984Z,15.72
2024-03-15T08:37:10.596Z,15.59
2024-03-15T08:39:39.924Z,16.17
2024-03-15T08:42:08.785Z,15.25
2024-03-15T08:44:37.779Z,15.59
2024-03-15T08:47:08.325Z,15.65
2024-03-15T08:49:38.562Z,15.91
2024-03-15T08:52:07.016Z,15.39
2024-03-15T08:54:37.433Z,15.87
2024-03-15T08:57:07.715Z,15.51
2024-03-15T08:59:36.141Z,15.98
2024-03-15T09:02:14.643Z,16.21
2024-03-15T09:04:45.055Z,16.12
2024-03-15T09:07:15.920Z,16.47
2024-03-15T09:09:46.054Z,16.33
2024-03-15T09:12:16.003Z,16.42
2024-03-15T09:14:47.768Z,16.54
2024-03-15T09:17:16.169Z,16.42
2024-03-15T09:19:49.143Z,16.30
2024-03-15T09:22:17.771Z,16.28
2024-03-15T09:24:48.753Z,16.08
2024-03-15T09:27:18.111Z,15.50
2024-03-15T09:29:52.277Z,15.96
2024-03-15T09:32:25.670Z,16.42
2024-03-15T09:34:58.343Z,17.01
2024-03-15T09:37:39.698Z,15.98
2024-03-15T09:40:10.557Z,16.25
2024-03-15T09:42:42.893Z,16.50
2024-03-15T09:45:13.607Z,16.58
2024-03-15T09:47:43.970Z,17.20
2024-03-15T09:50:18.287Z,15.91
2024-03-15T09:52:48.216Z,16.69
2024-03-15T09:55:20.742Z,17.18
2024-03-15T09:58:03.920Z,17.33
2024-03-15T10:00:32.259Z,16.30
2024-03-15T10:03:04.552Z,16.93
2024-03-15T10:05:36.495Z,17.54
2024-03-15T10:08:07.940Z,16.94
2024-03-15T10:10:39.817Z,16.83
2024-03-15T10:13:09.339Z,16.43
2024-03-15T10:15:38.459Z,17.06
2024-03-15T10:18:14.271Z,16.61
2024-03-15T10:20:48.989Z,16.62
2024-03-15T10:23:17.093Z,16.77
2024-03-15T10:25:48.019Z,16.18
2024-03-15T10:28:21.491Z,16.19
2024-03-15T10:30:53.270Z,15.61
2024-03-15T10:33:21.535Z,15.51
2024-03-15T10:35:49.876Z,15.54
2024-03-15T10:38:24.019Z,15.54
2024-03-15T10:40:54.161Z,15.46
2024-03-15T10:43:24.926Z,14.96
2024-03-15T10:45:54.251Z,15.79
2024-03-15T10:48:24.344Z,15.33
2024-03-15T10:50:54.532Z,15.20
2024-03-15T10:53:29.085Z,15.52
2024-03-15T10:55:59.647Z,14.78
2024-03-15T10:58:28.915Z,15.27
2024-03-15T11:01:01.532Z,14.86
2024-03-15T11:03:33.229Z,15.14
2024-03-15T11:06:04.894Z,15.61
2024-03-15T11:08:35.672Z,15.55
2024-03-15T11:11:05.790Z,15.23
2024-03-15T11:13:37.915Z,15.94
2024-03-15T11:16:25.247Z,16.16
2024-03-15T11:18:56.025Z,16.27
2024-03-15T11:21:26.411Z,16.66
2024-03-15T11:23:55.545Z,16.21
2024-03-15T11:26:26.110Z,16.18
2024-03-15T11:29:00.253Z,15.97
2024-03-15T11:31:35.344Z,16.65
2024-03-15T11:34:04.733Z,16.68
2024-03-15T11:36:35.958Z,17.32
2024-03-15T11:39:11.807Z,16.51
2024-03-15T11:41:40.505Z,16.43
2024-03-15T11:44:08.996Z,17.14
2024-03-15T11:46:42.658Z,16.93
2024-03-15T11:49:12.933Z,16.60
2024-03-15T11:51:57.167Z,17.11
2024-03-15T11:54:26.546Z,17.26
2024-03-15T11:57:00.378Z,16.37
2024-03-15T11:59:28.405Z,16.05
2024-03-15T12:01:58.152Z,15.75
2024-03-15T12:04:29.655Z,16.36
2024-03-15T12:06:57.825Z,15.70
2024-03-15T12:09:26.536Z,15.85
2024-03-15T12:11:58.235Z,16.42
2024-03-15T12:14:26.788Z,15.98
2024-03-15T12:16:58.662Z,15.97
2024-03-15T12:19:27.009Z,16.12
2024-03-15T12:21:55.306Z,16.40
2024-03-15T12:24:24.735Z,16.01
2024-03-15T12:26:58.139Z,16.37
2024-03-15T12:29:26.037Z,16.12
2024-03-15T12:31:56.021Z,16.17
2024-03-15T12:34:25.678Z,16.28
2024-03-15T12:36:55.084Z,16.69
2024-03-15T12:39:26.507Z,16.85
2024-03-15T12:41:56.971Z,17.34
2024-03-15T12:44:25.388Z,17.47
2024-03-15T12:46:54.168Z,17.67
2024-03-15T12:49:28.862Z,17.80
2024-03-15T12:51:57.611Z,18.76
2024-03-15T12:54:26.020Z,18.61
2024-03-15T12:56:57.337Z,18.49
2024-03-15T12:59:25.855Z,18.48
2024-03-15T13:01:54.070Z,18.28
2024-03-15T13:04:23.463Z,18.58
2024-03-15T13:06:53.194Z,17.63
2024-03-15T13:09:21.904Z,17.57
2024-03-15T13:11:55.377Z,17.56
2024-03-15T13:14:23.690Z,18.00
2024-03-15T13:16:53.345Z,17.65
2024-03-15T13:19:22.155Z,17.30
2024-03-15T13:21:54.470Z,17.60
2024-03-15T13:24:24.457Z,17.63
2024-03-15T13:26:55.483Z,18.21
2024-03-15T13:29:26.153Z,18.25
2024-03-15T13:31:59.904Z,17.92
2024-03-15T13:34:28.475Z,18.17
2024-03-15T13:37:07.461Z,18.34
2024-03-15T13:39:37.968Z,18.24
2024-03-15T13:42:07.950Z,17.93
2024-03-15T13:44:38.613Z,17.46
2024-03-15T13:47:09.574Z,18.04
2024-03-15T13:49:40.682Z,18.03
2024-03-15T13:52:13.190Z,17.95
2024-03-15T13:54:42.783Z,18.19
2024-03-15T13:57:13.746Z,18.36
2024-03-15T13:59:42.927Z,18.65
2024-03-15T14:02:14.295Z,18.68
2024-03-15T14:04:45.505Z,18.74
2024-03-15T14:07:19.172Z,18.36
2024-03-15T14:09:54.164Z,18.25
2024-03-15T14:12:24.429Z,18.28
2024-03-15T14:14:54.740Z,18.35
2024-03-15T14:17:22.976Z,18.44
2024-03-15T14:19:57.081Z,18.62
2024-03-15T14:22:28.679Z,18.22
2024-03-15T14:24:59.417Z,18.94
2024-03-15T14:27:36.020Z,18.57
2024-03-15T14:30:04.641Z,18.03
2024-03-15T14:32:38.427Z,18.03
2024-03-15T14:35:09.130Z,18.17
2024-03-15T14:37:42.043Z,18.10
2024-03-15T14:40:19.068Z,18.13
2024-03-15T14:42:51.054Z,18.56
2024-03-15T14:45:20.431Z,18.42
2024-03-15T14:47:51.610Z,18.78
2024-03-15T14:50:34.866Z,18.60
2024-03-15T14:53:17.354Z,18.72
2024-03-15T14:55:51.792Z,19.40
2024-03-15T14:58:22.167Z,19.88
2024-03-15T15:00:51.559Z,18.94
2024-03-15T15:03:23.406Z,18.93
2024-03-15T15:05:55.011Z,19.43
2024-03-15T15:08:30.112Z,19.32
2024-03-15T15:11:01.051Z,19.13
2024-03-15T15:13:29.647Z,19.62
2024-03-15T15:16:00.521Z,19.88
2024-03-15T15:18:37.003Z,19.83
2024-03-15T15:21:05.291Z,19.74
2024-03-15T15:23:38.005Z,19.50
2024-03-15T15:26:10.125Z,20.16
2024-03-15T15:28:38.095Z,19.64
2024-03-15T15:31:08.050Z,19.21
2024-03-15T15:33:46.208Z,19.68
2024-03-15T15:36:14.965Z,19.65
2024-03-15T15:38:48.153Z,18.99
2024-03-15T15:41:16.174Z,19.06
2024-03-15T15:43:46.056Z,19.62
2024-03-15T15:46:15.517Z,19.20
2024-03-15T15:48:46.082Z,19.49
2024-03-15T15:51:15.885Z,19.85
2024-03-15T15:53:44.790Z,19.65
2024-03-15T15:56:17.518Z,18.90
2024-03-15T15:58:53.174Z,19.67
2024-03-15T16:01:21.600Z,18.57
2024-03-15T16:03:52.257Z,18.88
2024-03-15T16:06:30.962Z,18.55
2024-03-15T16:09:04.254Z,18.61
2024-03-15T16:11:34.070Z,18.57
2024-03-15T16:14:02.486Z,18.38
2024-03-15T16:16:35.616Z,17.92
2024-03-15T16:19:04.349Z,18.47
2024-03-15T16:21:35.035Z,18.24
2024-03-15T16:24:03.383Z,17.79
2024-03-15T16:26:31.614Z,18.29
2024-03-15T16:29:13.526Z,17.73
2024-03-15T16:31:42.673Z,17.88
2024-03-15T16:34:11.948Z,17.73
2024-03-15T16:36:44.235Z,17.87
2024-03-15T16:39:20.104Z,18.03
2024-03-15T16:41:50.864Z,18.04
2024-03-15T16:44:20.470Z,18.04
2024-03-15T16:46:48.926Z,17.93
2024-03-15T16:49:20.886Z,17.83
2024-03-15T16:51:55.745Z,17.59
2024-03-15T16:54:25.224Z,18.07
2024-03-15T16:56:53.248Z,18.26
2024-03-15T16:59:23.978Z,17.93
2024-03-15T17:01:52.059Z,17.42
2024-03-15T17:04:24.834Z,17.95
2024-03-15T17:06:57.288Z,17.64
2024-03-15T17:09:28.307Z,18.22
2024-03-15T17:11:58.969Z,17.99
2024-03-15T17:14:37.087Z,17.91
2024-03-15T17:17:12.336Z,17.38
2024-03-15T17:19:42.547Z,17.66
2024-03-15T17:22:13.823Z,17.66
2024-03-15T17:24:44.733Z,17.43
2024-03-15T17:27:12.892Z,17.76
2024-03-15T17:29:41.913Z,17.46
2024-03-15T17:32:13.134Z,17.40
2024-03-15T17:34:46.409Z,17.34
2024-03-15T17:37:17.931Z,17.55
2024-03-15T17:39:50.366Z,17.62
2024-03-15T17:42:21.286Z,17.23
2024-03-15T17:44:50.114Z,17.36
2024-03-15T17:47:20.062Z,17.71
2024-03-15T17:49:48.068Z,17.41
2024-03-15T17:52:21.075Z,17.33
2024-03-15T17:54:52.020Z,17.42
2024-03-15T17:57:21.438Z,17.44
2024-03-15T17:59:53.362Z,17.13
2024-03-15T18:02:26.230Z,17.33
2024-03-15T18:04:54.765Z,17.38
2024-03-15T18:07:28.227Z,17.27
2024-03-15T18:09:56.593Z,17.41
2024-03-15T18:12:25.110Z,17.60
2024-03-15T18:14:54.191Z,17.80
2024-03-15T18:17:22.548Z,16.92
2024-03-15T18:19:51.095Z,17.02
2024-03-15T18:22:20.680Z,17.17
2024-03-15T18:24:50.219Z,16.79
2024-03-15T18:27:21.230Z,16.72
2024-03-15T18:29:49.260Z,17.31
2024-03-15T18:32:23.943Z,16.98
2024-03-15T18:34:52.913Z,16.78
2024-03-15T18:37:22.341Z,16.67
2024-03-15T18:40:00.762Z,16.79
2024-03-15T18:42:28.890Z,16.69
2024-03-15T18:44:58.671Z,16.80
2024-03-15T18:47:31.834Z,16.84
2024-03-15T18:50:02.910Z,16.78
2024-03-15T18:52:31.795Z,17.02
2024-03-15T18:55:01.358Z,16.76
2024-03-15T18:57:29.846Z,17.04
2024-03-15T19:00:11.837Z,17.02
2024-03-15T19:02:43.235Z,16.69
2024-03-15T19:05:13.014Z,16.67
2024-03-15T19:07:44.670Z,17.05
2024-03-15T19:10:13.472Z,17.32
2024-03-15T19:12:41.613Z,16.84
2024-03-15T19:15:10.837Z,16.88
2024-03-15T19:17:39.348Z,16.56
2024-03-15T19:20:09.943Z,16.87
2024-03-15T19:22:41.263Z,16.76
2024-03-15T19:25:13.473Z,17.16
2024-03-15T19:27:41.913Z,16.99
2024-03-15T19:30:12.720Z,16.41
2024-03-15T19:32:41.169Z,16.80
2024-03-15T19:35:15.302Z,16.75
2024-03-15T19:37:44.287Z,16.68
2024-03-15T19:40:15.102Z,16.53
2024-03-15T19:42:45.148Z,16.88
2024-03-15T19:45:17.655Z,16.56
2024-03-15T19:47:49.650Z,16.35
2024-03-15T19:50:18.107Z,16.62
2024-03-15T19:52:47.092Z,16.47
2024-03-15T19:55:16.353Z,16.02
2024-03-15T19:57:45.684Z,16.30
2024-03-15T20:00:18.361Z,16.13
2024-03-15T20:02:49.413Z,16.24
2024-03-15T20:05:19.242Z,15.94
2024-03-15T20:07:53.811Z,15.63
2024-03-15T20:10:22.046Z,15.86
2024-03-15T20:12:53.591Z,15.95
2024-03-15T20:15:31.134Z,15.99
2024-03-15T20:18:07.543Z,15.69
2024-03-15T20:20:36.063Z,16.38
2024-03-15T20:23:04.442Z,15.71
2024-03-15T20:25:35.822Z,16.17
2024-03-15T20:28:07.265Z,15.72
2024-03-15T20:30:38.449Z,15.62
2024-03-15T20:33:07.848Z,15.76
2024-03-15T20:35:40.325Z,15.72
2024-03-15T20:38:15.341Z,16.25
2024-03-15T20:40:43.659Z,15.55
2024-03-15T20:43:17.199Z,15.95
2024-03-15T20:45:52.511Z,15.72
2024-03-15T20:48:21.845Z,15.62
2024-03-15T20:51:01.099Z,15.93
2024-03-15T20:53:30.277Z,15.76
2024-03-15T20:56:00.447Z,16.05
2024-03-15T20:58:36.257Z,15.50
2024-03-15T21:01:08.260Z,15.75
2024-03-15T21:03:36.839Z,15.36
2024-03-15T21:06:08.642Z,15.89
2024-03-15T21:08:44.773Z,15.88
2024-03-15T21:11:15.099Z,16.39
2024-03-15T21:13:48.054Z,16.08
2024-03-15T21:16:26.690Z,15.78
2024-03-15T21:18:55.738Z,15.84
2024-03-15T21:21:31.309Z,15.98
2024-03-15T21:24:02.218Z,15.94
2024-03-15T21:26:32.577Z,16.17
2024-03-15T21:29:01.705Z,15.97
2024-03-15T21:31:29.830Z,16.01
2024-03-15T21:34:00.892Z,16.00
2024-03-15T21:36:33.015Z,15.74
2024-03-15T21:39:02.806Z,15.61
2024-03-15T21:41:39.518Z,15.60
2024-03-15T21:44:09.926Z,15.78
2024-03-15T21:46:39.183Z,15.60
2024-03-15T21:49:08.988Z,15.78
2024-03-15T21:51:38.166Z,15.85
2024-03-15T21:54:09.006Z,15.86
2024-03-15T21:56:38.206Z,16.07
2024-03-15T21:59:07.954Z,15.53
2024-03-15T22:01:40.885Z,15.89
2024-03-15T22:04:20.026Z,15.50
2024-03-15T22:06:51.178Z,15.67
2024-03-15T22:09:22.320Z,15.94
2024-03-15T22:11:52.575Z,15.64
2024-03-15T22:14:21.660Z,15.27
2024-03-15T22:16:53.507Z,15.15
2024-03-15T22:19:21.989Z,15.75
2024-03-15T22:21:50.599Z,15.31
2024-03-15T22:24:20.447Z,15.77
2024-03-15T22:26:48.933Z,15.80
2024-03-15T22:29:23.474Z,15.84
2024-03-15T22:32:00.424Z,16.16
2024-03-15T22:34:33.541Z,15.85
2024-03-15T22:37:02.676Z,15.51
2024-03-15T22:39:34.045Z,15.50
2024-03-15T22:42:06.229Z,15.71
2024-03-15T22:44:36.226Z,15.53
2024-03-15T22:47:50.464Z,15.86
2024-03-15T22:50:22.352Z,15.49
2024-03-15T22:52:57.797Z,15.63
2024-03-15T22:55:28.177Z,15.89
2024-03-15T22:57:58.252Z,15.24
2024-03-15T23:00:32.126Z,15.84
2024-03-15T23:03:03.597Z,15.24
2024-03-15T23:05:31.634Z,15.07
2024-03-15T23:08:00.283Z,15.31
2024-03-15T23:10:28.290Z,15.60
2024-03-15T23:12:58.842Z,15.86
2024-03-15T23:15:28.321Z,15.41
2024-03-15T23:18:00.420Z,15.27
2024-03-15T23:20:30.421Z,14.79
2024-03-15T23:35:36.859Z,14.89
2024-03-15T23:38:09.172Z,15.33
2024-03-15T23:40:39.047Z,15.09
2024-03-15T23:43:11.752Z,14.80
2024-03-15T23:45:39.999Z,14.81
2024-03-15T23:48:23.237Z,15.23
2024-03-15T23:50:52.185Z,15.13
2024-03-15T23:53:22.491Z,14.77
2024-03-15T23:55:53.945Z,14.94
2024-03-15T23:58:22.316Z,14.98
